createdAt,value
2022-07-29T00:00:07.550Z,77.63
2022-07-29T00:01:07.478Z,77.53
2022-07-29T00:02:07.397Z,78.02
2022-07-29T00:03:07.404Z,77.53
2022-07-29T00:04:07.311Z,77.53
2022-07-29T00:05:07.181Z,76.67
2022-07-29T00:06:07.104Z,75.90
2022-07-29T00:07:07.030Z,75.23
2022-07-29T00:08:10.696Z,75.42
2022-07-29T00:09:06.877Z,74.85
2022-07-29T00:10:06.800Z,75.52
2022-07-29T00:11:06.728Z,75.90
2022-07-29T00:12:06.660Z,75.90
2022-07-29T00:13:06.579Z,78.69
2022-07-29T00:14:06.506Z,79.46
2022-07-29T00:15:06.434Z,79.36
2022-07-29T00:16:06.397Z,80.32
2022-07-29T00:17:06.277Z,80.51
2022-07-29T00:18:06.204Z,80.04
2022-07-29T00:19:06.132Z,79.46
2022-07-29T00:20:06.051Z,78.98
2022-07-29T00:21:05.981Z,77.63
2022-07-29T00:22:05.905Z,76.67
2022-07-29T00:23:05.833Z,75.32
2022-07-29T00:24:05.751Z,74.27
2022-07-29T00:25:05.679Z,74.46
2022-07-29T00:26:05.605Z,73.50
2022-07-29T00:27:05.530Z,73.21
2022-07-29T00:28:05.455Z,73.02
2022-07-29T00:29:35.195Z,72.92
2022-07-29T00:30:05.307Z,73.41
2022-07-29T00:31:05.295Z,74.08
2022-07-29T00:32:05.246Z,74.27
2022-07-29T00:33:09.004Z,73.41
2022-07-29T00:34:05.014Z,73.31
2022-07-29T00:35:04.934Z,74.85
2022-07-29T00:36:04.856Z,75.75
2022-07-29T00:37:04.789Z,75.42
2022-07-29T00:38:04.713Z,74.60
2022-07-29T00:39:04.635Z,74.02
2022-07-29T00:40:04.560Z,74.30
2022-07-29T00:41:04.483Z,74.30
2022-07-29T00:42:04.407Z,73.25
2022-07-29T00:43:04.335Z,76.32
2022-07-29T00:44:04.264Z,77.67
2022-07-29T00:45:04.184Z,77.09
2022-07-29T00:46:04.113Z,75.75
2022-07-29T00:47:04.168Z,75.84
2022-07-29T00:48:03.957Z,75.42
2022-07-29T00:49:03.954Z,75.17
2022-07-29T00:50:03.809Z,74.37
2022-07-29T00:51:03.739Z,73.88
2022-07-29T00:52:03.661Z,74.27
2022-07-29T00:53:03.587Z,73.88
2022-07-29T00:54:03.512Z,72.92
2022-07-29T00:55:08.336Z,74.02
2022-07-29T00:56:03.362Z,77.76
2022-07-29T00:57:03.289Z,78.02
2022-07-29T00:58:03.215Z,78.50
2022-07-29T00:59:03.140Z,79.17
2022-07-29T01:00:03.065Z,78.02
2022-07-29T01:01:03.049Z,76.19
2022-07-29T01:02:03.009Z,75.71
2022-07-29T01:03:02.848Z,76.00
2022-07-29T01:04:02.764Z,75.04
2022-07-29T01:05:02.693Z,74.46
2022-07-29T01:06:02.614Z,74.46
2022-07-29T01:07:02.585Z,73.21
2022-07-29T01:08:02.469Z,73.25
2022-07-29T01:09:02.390Z,74.30
2022-07-29T01:10:02.317Z,76.42
2022-07-29T01:11:02.245Z,77.86
2022-07-29T01:12:02.167Z,78.25
2022-07-29T01:13:02.094Z,78.25
2022-07-29T01:14:02.016Z,77.86
2022-07-29T01:15:01.943Z,77.63
2022-07-29T01:16:01.921Z,77.34
2022-07-29T01:17:01.794Z,76.67
2022-07-29T01:18:01.719Z,76.96
2022-07-29T01:19:01.644Z,77.15
2022-07-29T01:20:01.569Z,77.83
2022-07-29T01:21:01.492Z,77.44
2022-07-29T01:22:01.415Z,77.06
2022-07-29T01:23:01.355Z,76.19
2022-07-29T01:24:01.266Z,76.09
2022-07-29T01:25:01.206Z,75.32
2022-07-29T01:26:01.119Z,75.04
2022-07-29T01:27:01.047Z,74.27
2022-07-29T01:28:00.968Z,74.27
2022-07-29T01:29:00.893Z,74.37
2022-07-29T01:30:00.825Z,74.30
2022-07-29T01:31:00.808Z,73.79
2022-07-29T01:32:01.261Z,73.50
2022-07-29T01:33:00.594Z,74.02
2022-07-29T01:34:00.524Z,74.21
2022-07-29T01:35:00.453Z,73.73
2022-07-29T01:36:00.369Z,73.54
2022-07-29T01:37:00.292Z,73.35
2022-07-29T01:38:00.227Z,74.30
2022-07-29T01:39:00.153Z,74.40
2022-07-29T01:40:00.097Z,75.42
2022-07-29T01:40:59.995Z,75.90
2022-07-29T01:41:59.921Z,75.81
2022-07-29T01:42:59.854Z,75.81
2022-07-29T01:43:59.773Z,75.42
2022-07-29T01:44:59.696Z,74.85
2022-07-29T01:45:59.627Z,75.13
2022-07-29T01:46:59.598Z,74.46
2022-07-29T01:47:59.478Z,74.37
2022-07-29T01:48:59.462Z,74.55
2022-07-29T01:49:59.324Z,75.23
2022-07-29T01:50:59.247Z,75.13
2022-07-29T01:51:59.172Z,75.13
2022-07-29T01:52:59.096Z,74.85
2022-07-29T01:53:59.021Z,74.40
2022-07-29T01:54:58.947Z,74.40
2022-07-29T01:55:59.016Z,73.50
2022-07-29T01:56:58.795Z,74.40
2022-07-29T01:57:58.722Z,74.94
2022-07-29T01:58:58.649Z,76.09
2022-07-29T01:59:58.572Z,76.19
2022-07-29T02:00:58.497Z,76.96
2022-07-29T02:01:58.453Z,76.77
2022-07-29T02:02:58.351Z,76.09
2022-07-29T02:03:58.280Z,75.81
2022-07-29T02:04:58.227Z,75.23
2022-07-29T02:05:58.128Z,75.90
2022-07-29T02:06:58.049Z,76.09
2022-07-29T02:07:57.982Z,76.29
2022-07-29T02:08:57.899Z,75.52
2022-07-29T02:09:57.831Z,76.09
2022-07-29T02:10:57.749Z,76.39
2022-07-29T02:11:57.675Z,77.63
2022-07-29T02:12:57.598Z,79.27
2022-07-29T02:13:57.533Z,80.99
2022-07-29T02:14:57.449Z,81.57
2022-07-29T02:15:57.467Z,80.71
2022-07-29T02:16:57.301Z,80.04
2022-07-29T02:17:57.230Z,78.30
2022-07-29T02:18:57.157Z,78.11
2022-07-29T02:19:57.075Z,77.63
2022-07-29T02:20:57.003Z,76.96
2022-07-29T02:21:56.927Z,76.54
2022-07-29T02:22:56.848Z,76.06
2022-07-29T02:23:56.776Z,76.39
2022-07-29T02:24:56.700Z,76.29
2022-07-29T02:25:56.626Z,75.62
2022-07-29T02:26:56.556Z,75.81
2022-07-29T02:27:56.482Z,75.62
2022-07-29T02:28:56.404Z,75.42
2022-07-29T02:29:56.340Z,75.62
2022-07-29T02:30:56.299Z,75.62
2022-07-29T02:31:56.181Z,75.90
2022-07-29T02:32:56.099Z,75.71
2022-07-29T02:33:56.024Z,75.62
2022-07-29T02:34:55.953Z,75.62
2022-07-29T02:35:55.875Z,75.71
2022-07-29T02:36:55.802Z,75.42
2022-07-29T02:37:55.725Z,76.19
2022-07-29T02:38:55.655Z,76.19
2022-07-29T02:39:55.575Z,75.90
2022-07-29T02:40:55.503Z,76.09
2022-07-29T02:41:55.427Z,75.71
2022-07-29T02:42:55.350Z,75.52
2022-07-29T02:43:55.276Z,75.62
2022-07-29T02:44:55.203Z,75.81
2022-07-29T02:45:55.125Z,75.52
2022-07-29T02:46:55.100Z,76.96
2022-07-29T02:47:54.980Z,77.34
2022-07-29T02:48:54.920Z,77.44
2022-07-29T02:49:54.827Z,78.55
2022-07-29T02:50:54.750Z,79.80
2022-07-29T02:51:54.677Z,80.47
2022-07-29T02:52:54.760Z,80.76
2022-07-29T02:53:54.530Z,79.61
2022-07-29T02:54:54.451Z,79.42
2022-07-29T02:55:54.379Z,79.42
2022-07-29T02:56:54.299Z,78.55
2022-07-29T02:57:55.678Z,78.45
2022-07-29T02:58:54.156Z,79.13
2022-07-29T02:59:54.079Z,78.75
2022-07-29T03:00:54.002Z,79.13
2022-07-29T03:01:53.951Z,78.17
2022-07-29T03:02:53.847Z,77.98
2022-07-29T03:03:53.774Z,78.36
2022-07-29T03:04:53.737Z,79.99
2022-07-29T03:05:53.623Z,78.84
2022-07-29T03:06:53.553Z,78.36
2022-07-29T03:07:53.476Z,77.78
2022-07-29T03:08:53.399Z,77.78
2022-07-29T03:09:53.327Z,77.50
2022-07-29T03:10:53.246Z,76.73
2022-07-29T03:11:53.174Z,76.92
2022-07-29T03:12:53.096Z,76.92
2022-07-29T03:13:53.028Z,76.92
2022-07-29T03:14:52.946Z,77.31
2022-07-29T03:15:52.921Z,77.78
2022-07-29T03:16:52.802Z,77.50
2022-07-29T03:17:52.721Z,77.31
2022-07-29T03:18:52.645Z,77.40
2022-07-29T03:19:52.571Z,77.31
2022-07-29T03:20:52.496Z,77.01
2022-07-29T03:21:52.422Z,77.01
2022-07-29T03:22:52.348Z,77.31
2022-07-29T03:23:52.269Z,77.98
2022-07-29T03:24:52.198Z,79.99
2022-07-29T03:25:52.120Z,80.38
2022-07-29T03:26:52.046Z,80.28
2022-07-29T03:27:51.974Z,80.28
2022-07-29T03:28:51.892Z,79.99
2022-07-29T03:29:51.822Z,79.86
2022-07-29T03:30:51.767Z,80.28
2022-07-29T03:31:51.671Z,81.24
2022-07-29T03:32:52.227Z,80.63
2022-07-29T03:33:51.519Z,81.10
2022-07-29T03:34:51.445Z,79.96
2022-07-29T03:35:51.370Z,79.57
2022-07-29T03:36:51.294Z,79.19
2022-07-29T03:37:51.219Z,79.38
2022-07-29T03:38:51.143Z,80.05
2022-07-29T03:39:51.083Z,79.96
2022-07-29T03:40:50.997Z,80.82
2022-07-29T03:41:50.916Z,81.10
2022-07-29T03:42:50.847Z,81.49
2022-07-29T03:43:50.765Z,81.68
2022-07-29T03:44:50.693Z,81.49
2022-07-29T03:45:50.618Z,80.68
2022-07-29T03:46:50.618Z,80.78
2022-07-29T03:47:52.883Z,80.73
2022-07-29T03:48:50.466Z,81.49
2022-07-29T03:49:50.312Z,82.07
2022-07-29T03:50:50.243Z,81.78
2022-07-29T03:51:50.160Z,81.49
2022-07-29T03:52:50.090Z,81.68
2022-07-29T03:53:50.013Z,80.63
2022-07-29T03:54:49.941Z,81.30
2022-07-29T03:55:49.860Z,81.40
2022-07-29T03:56:49.786Z,81.35
2022-07-29T03:57:49.709Z,81.64
2022-07-29T03:58:49.639Z,82.31
2022-07-29T03:59:49.557Z,82.70
2022-07-29T04:00:49.485Z,82.60
2022-07-29T04:01:49.415Z,82.60
2022-07-29T04:02:49.795Z,82.51
2022-07-29T04:03:49.295Z,81.93
2022-07-29T04:04:49.182Z,81.84
2022-07-29T04:05:49.108Z,81.84
2022-07-29T04:06:49.032Z,81.84
2022-07-29T04:07:48.956Z,81.45
2022-07-29T04:08:48.887Z,81.45
2022-07-29T04:09:48.806Z,81.54
2022-07-29T04:10:48.728Z,81.64
2022-07-29T04:12:01.979Z,81.64
2022-07-29T04:12:48.582Z,81.54
2022-07-29T04:13:48.501Z,81.74
2022-07-29T04:14:48.434Z,81.74
2022-07-29T04:15:48.466Z,81.54
2022-07-29T04:16:48.283Z,81.54
2022-07-29T04:17:48.203Z,81.35
2022-07-29T04:18:48.132Z,81.35
2022-07-29T04:19:48.048Z,80.78
2022-07-29T04:20:47.976Z,80.87
2022-07-29T04:21:47.903Z,80.20
2022-07-29T04:22:47.828Z,80.87
2022-07-29T04:23:53.753Z,80.78
2022-07-29T04:24:47.676Z,80.78
2022-07-29T04:25:47.600Z,80.87
2022-07-29T04:26:47.522Z,81.54
2022-07-29T04:27:47.444Z,80.78
2022-07-29T04:28:47.368Z,79.91
2022-07-29T04:29:56.571Z,79.82
2022-07-29T04:30:47.254Z,79.82
2022-07-29T04:31:47.159Z,80.01
2022-07-29T04:32:47.071Z,80.58
2022-07-29T04:33:46.992Z,80.20
2022-07-29T04:34:46.916Z,80.01
2022-07-29T04:35:52.309Z,80.01
2022-07-29T04:36:46.765Z,80.40
2022-07-29T04:37:46.687Z,80.78
2022-07-29T04:38:46.616Z,80.78
2022-07-29T04:39:46.544Z,80.58
2022-07-29T04:40:47.079Z,81.74
2022-07-29T04:41:46.445Z,81.64
2022-07-29T04:42:47.804Z,81.54
2022-07-29T04:43:46.233Z,81.93
2022-07-29T04:44:46.161Z,82.21
2022-07-29T04:45:46.084Z,82.21
2022-07-29T04:46:46.083Z,82.85
2022-07-29T04:47:45.929Z,82.94
2022-07-29T04:48:45.895Z,82.85
2022-07-29T04:49:45.781Z,82.46
2022-07-29T04:50:45.708Z,82.85
2022-07-29T04:51:45.628Z,83.33
2022-07-29T04:52:45.563Z,83.71
2022-07-29T04:53:45.479Z,84.28
2022-07-29T04:54:45.405Z,84.28
2022-07-29T04:55:45.330Z,83.52
2022-07-29T04:56:45.249Z,83.61
2022-07-29T04:57:45.175Z,83.23
2022-07-29T04:58:45.105Z,83.33
2022-07-29T04:59:45.028Z,83.61
2022-07-29T05:00:44.947Z,83.42
2022-07-29T05:01:44.935Z,84.19
2022-07-29T05:02:44.863Z,84.77
2022-07-29T05:03:44.720Z,84.28
2022-07-29T05:04:44.642Z,84.38
2022-07-29T05:05:44.569Z,84.86
2022-07-29T05:06:44.493Z,85.72
2022-07-29T05:07:44.416Z,86.40
2022-07-29T05:08:44.343Z,86.21
2022-07-29T05:09:44.263Z,84.95
2022-07-29T05:10:44.194Z,84.95
2022-07-29T05:11:44.109Z,84.28
2022-07-29T05:12:44.038Z,83.91
2022-07-29T05:13:45.693Z,84.14
2022-07-29T05:14:43.895Z,83.94
2022-07-29T05:15:43.977Z,84.52
2022-07-29T05:16:43.735Z,84.52
2022-07-29T05:17:43.663Z,84.81
2022-07-29T05:18:43.582Z,84.33
2022-07-29T05:19:43.510Z,84.04
2022-07-29T05:20:43.434Z,84.04
2022-07-29T05:21:43.358Z,83.75
2022-07-29T05:22:43.281Z,84.23
2022-07-29T05:23:43.202Z,83.37
2022-07-29T05:24:43.128Z,83.08
2022-07-29T05:25:44.832Z,83.18
2022-07-29T05:26:42.976Z,83.18
2022-07-29T05:27:42.904Z,82.93
2022-07-29T05:28:42.825Z,83.12
2022-07-29T05:29:45.608Z,82.74
2022-07-29T05:30:42.728Z,82.74
2022-07-29T05:31:42.594Z,82.64
2022-07-29T05:32:42.522Z,82.84
2022-07-29T05:33:42.466Z,83.03
2022-07-29T05:34:51.439Z,83.12
2022-07-29T05:35:42.296Z,82.26
2022-07-29T05:36:42.218Z,82.35
2022-07-29T05:37:42.143Z,81.78
2022-07-29T05:38:42.069Z,81.63
2022-07-29T05:39:48.782Z,81.53
2022-07-29T05:40:41.915Z,82.20
2022-07-29T05:41:41.845Z,81.53
2022-07-29T05:42:41.767Z,82.10
2022-07-29T05:43:41.687Z,82.10
2022-07-29T05:44:41.617Z,81.34
2022-07-29T05:45:49.510Z,81.72
2022-07-29T05:46:41.509Z,81.63
2022-07-29T05:47:41.386Z,81.57
2022-07-29T05:48:41.343Z,80.80
2022-07-29T05:49:41.238Z,80.90
2022-07-29T05:50:44.347Z,80.90
2022-07-29T05:51:41.085Z,80.90
2022-07-29T05:52:41.014Z,80.32
2022-07-29T05:53:40.937Z,80.42
2022-07-29T05:54:40.858Z,80.13
2022-07-29T05:55:40.787Z,79.75
2022-07-29T05:56:40.705Z,79.84
2022-07-29T05:57:40.635Z,80.07
2022-07-29T05:58:40.555Z,79.50
2022-07-29T05:59:40.483Z,79.30
2022-07-29T06:00:40.405Z,79.30
2022-07-29T06:01:40.408Z,79.21
2022-07-29T06:02:40.262Z,78.73
2022-07-29T06:03:40.186Z,79.05
2022-07-29T06:04:40.149Z,78.58
2022-07-29T06:05:40.030Z,78.28
2022-07-29T06:06:39.957Z,79.05
2022-07-29T06:07:39.884Z,78.67
2022-07-29T06:08:39.802Z,78.86
2022-07-29T06:09:39.729Z,78.86
2022-07-29T06:10:39.661Z,78.81
2022-07-29T06:11:39.577Z,78.90
2022-07-29T06:12:39.504Z,78.33
2022-07-29T06:13:39.432Z,78.42
2022-07-29T06:14:39.353Z,78.03
2022-07-29T06:15:39.319Z,78.03
2022-07-29T06:16:39.286Z,77.94
2022-07-29T06:17:39.128Z,78.13
2022-07-29T06:18:39.058Z,77.26
2022-07-29T06:19:38.978Z,77.08
2022-07-29T06:20:38.919Z,77.08
2022-07-29T06:21:42.167Z,76.69
2022-07-29T06:22:38.754Z,76.44
2022-07-29T06:23:38.678Z,76.82
2022-07-29T06:24:38.602Z,77.31
2022-07-29T06:25:38.532Z,76.44
2022-07-29T06:26:39.974Z,75.57
2022-07-29T06:27:38.379Z,76.06
2022-07-29T06:28:38.307Z,75.86
2022-07-29T06:29:38.235Z,75.28
2022-07-29T06:30:38.227Z,75.09
2022-07-29T06:31:38.083Z,75.19
2022-07-29T06:32:42.920Z,75.09
2022-07-29T06:33:37.934Z,74.55
2022-07-29T06:34:37.860Z,74.55
2022-07-29T06:35:41.884Z,74.74
2022-07-29T06:36:37.909Z,74.26
2022-07-29T06:37:37.633Z,74.26
2022-07-29T06:38:40.618Z,74.26
2022-07-29T06:39:37.486Z,74.07
2022-07-29T06:40:37.408Z,74.16
2022-07-29T06:41:37.337Z,73.58
2022-07-29T06:42:37.261Z,73.39
2022-07-29T06:43:50.381Z,73.05
2022-07-29T06:44:37.108Z,72.66
2022-07-29T06:45:37.039Z,72.56
2022-07-29T06:46:37.063Z,72.27
2022-07-29T06:47:36.887Z,71.79
2022-07-29T06:48:36.860Z,72.08
2022-07-29T06:49:36.739Z,72.37
2022-07-29T06:50:36.663Z,72.21
2022-07-29T06:51:36.593Z,71.44
2022-07-29T06:52:36.516Z,71.64
2022-07-29T06:53:36.445Z,71.54
2022-07-29T06:54:36.366Z,72.31
2022-07-29T06:55:36.295Z,72.50
2022-07-29T06:56:39.364Z,72.12
2022-07-29T06:57:36.151Z,72.69
2022-07-29T06:58:36.072Z,72.79
2022-07-29T06:59:36.234Z,72.99
2022-07-29T07:00:35.922Z,72.99
2022-07-29T07:01:35.963Z,72.34
2022-07-29T07:02:35.853Z,72.25
2022-07-29T07:03:35.701Z,71.58
2022-07-29T07:04:35.628Z,71.77
2022-07-29T07:05:35.552Z,71.58
2022-07-29T07:06:35.499Z,71.19
2022-07-29T07:07:35.407Z,72.06
2022-07-29T07:08:35.337Z,71.58
2022-07-29T07:09:40.070Z,71.77
2022-07-29T07:10:35.185Z,71.61
2022-07-29T07:11:35.112Z,71.32
2022-07-29T07:12:35.037Z,71.61
2022-07-29T07:13:34.968Z,71.51
2022-07-29T07:14:34.889Z,70.84
2022-07-29T07:15:39.824Z,70.74
2022-07-29T07:16:34.762Z,70.54
2022-07-29T07:17:34.667Z,70.45
2022-07-29T07:18:34.596Z,70.39
2022-07-29T07:19:34.523Z,70.45
2022-07-29T07:20:34.450Z,70.78
2022-07-29T07:21:34.384Z,70.58
2022-07-29T07:22:38.650Z,70.58
2022-07-29T07:23:34.229Z,70.39
2022-07-29T07:24:34.152Z,69.90
2022-07-29T07:25:34.087Z,70.39
2022-07-29T07:26:34.009Z,70.00
2022-07-29T07:27:33.934Z,70.00
2022-07-29T07:28:33.863Z,69.90
2022-07-29T07:29:33.792Z,69.90
2022-07-29T07:30:33.716Z,70.20
2022-07-29T07:31:33.737Z,70.00
2022-07-29T07:32:33.572Z,69.81
2022-07-29T07:33:33.498Z,69.36
2022-07-29T07:34:33.421Z,69.62
2022-07-29T07:35:33.355Z,69.36
2022-07-29T07:36:33.275Z,69.36
2022-07-29T07:37:33.208Z,69.65
2022-07-29T07:38:33.135Z,69.65
2022-07-29T07:39:33.064Z,68.59
2022-07-29T07:40:32.986Z,68.43
2022-07-29T07:41:32.917Z,68.62
2022-07-29T07:42:32.844Z,68.14
2022-07-29T07:43:32.772Z,67.75
2022-07-29T07:44:32.693Z,67.30
2022-07-29T07:45:32.690Z,67.79
2022-07-29T07:46:32.553Z,67.49
2022-07-29T07:47:32.478Z,66.95
2022-07-29T07:48:32.406Z,66.24
2022-07-29T07:49:32.336Z,66.75
2022-07-29T07:50:32.263Z,67.05
2022-07-29T07:51:32.190Z,66.75
2022-07-29T07:52:32.122Z,67.24
2022-07-29T07:53:32.047Z,66.11
2022-07-29T07:54:31.972Z,65.72
2022-07-29T07:55:47.446Z,66.30
2022-07-29T07:56:35.141Z,65.92
2022-07-29T07:57:31.756Z,65.24
2022-07-29T07:58:31.682Z,65.14
2022-07-29T07:59:31.614Z,64.69
2022-07-29T08:00:31.545Z,64.17
2022-07-29T08:01:55.733Z,65.43
2022-07-29T08:02:31.484Z,65.17
2022-07-29T08:03:31.334Z,64.59
2022-07-29T08:04:31.252Z,65.08
2022-07-29T08:05:31.182Z,63.72
2022-07-29T08:06:31.111Z,63.24
2022-07-29T08:07:31.043Z,63.34
2022-07-29T08:08:30.967Z,63.14
2022-07-29T08:09:31.044Z,63.14
2022-07-29T08:10:30.822Z,62.85
2022-07-29T08:11:30.751Z,63.14
2022-07-29T08:12:30.677Z,63.53
2022-07-29T08:13:30.611Z,63.72
2022-07-29T08:14:30.535Z,63.53
2022-07-29T08:15:30.466Z,63.82
2022-07-29T08:16:30.436Z,64.01
2022-07-29T08:17:30.329Z,64.59
2022-07-29T08:18:30.249Z,64.59
2022-07-29T08:19:30.185Z,63.72
2022-07-29T08:20:30.106Z,63.43
2022-07-29T08:21:30.038Z,62.17
2022-07-29T08:22:29.968Z,62.07
2022-07-29T08:23:46.415Z,62.85
2022-07-29T08:24:29.824Z,63.14
2022-07-29T08:25:29.755Z,63.07
2022-07-29T08:26:29.681Z,63.56
2022-07-29T08:27:44.623Z,62.01
2022-07-29T08:28:29.541Z,61.24
2022-07-29T08:29:29.468Z,61.04
2022-07-29T08:30:29.401Z,60.65
2022-07-29T08:31:29.365Z,61.24
2022-07-29T08:32:52.126Z,60.75
2022-07-29T08:33:29.187Z,61.75
2022-07-29T08:34:29.114Z,60.65
2022-07-29T08:35:33.340Z,60.39
2022-07-29T08:36:28.971Z,60.00
2022-07-29T08:37:28.899Z,60.39
2022-07-29T08:38:28.834Z,60.91
2022-07-29T08:39:28.761Z,60.03
2022-07-29T08:40:32.090Z,59.97
2022-07-29T08:41:28.621Z,59.38
2022-07-29T08:42:28.547Z,59.28
2022-07-29T08:43:28.482Z,59.19
2022-07-29T08:44:30.567Z,59.58
2022-07-29T08:45:28.372Z,59.70
2022-07-29T08:46:28.265Z,58.64
2022-07-29T08:47:28.197Z,58.25
2022-07-29T08:48:28.127Z,58.34
2022-07-29T08:49:28.216Z,58.44
2022-07-29T08:50:27.985Z,57.47
2022-07-29T08:51:27.920Z,57.28
2022-07-29T08:52:27.847Z,57.28
2022-07-29T08:53:27.838Z,57.28
2022-07-29T08:54:27.709Z,57.08
2022-07-29T08:55:27.636Z,57.18
2022-07-29T08:56:27.563Z,57.50
2022-07-29T08:57:27.496Z,56.04
2022-07-29T08:58:27.431Z,54.49
2022-07-29T08:59:27.361Z,53.22
2022-07-29T09:00:27.289Z,52.15
2022-07-29T09:01:36.511Z,52.19
2022-07-29T09:02:27.151Z,52.96
2022-07-29T09:03:27.131Z,50.73
2022-07-29T09:04:27.008Z,49.95
2022-07-29T09:05:26.943Z,48.30
2022-07-29T09:06:26.876Z,50.16
2022-07-29T09:07:26.803Z,51.62
2022-07-29T09:08:26.734Z,51.07
2022-07-29T09:09:26.667Z,49.22
2022-07-29T09:10:26.597Z,49.22
2022-07-29T09:11:26.528Z,50.21
2022-07-29T09:12:29.334Z,49.12
2022-07-29T09:13:26.389Z,48.66
2022-07-29T09:14:26.320Z,49.71
2022-07-29T09:15:26.249Z,49.12
2022-07-29T09:16:51.016Z,49.12
2022-07-29T09:17:26.162Z,50.41
2022-07-29T09:18:30.525Z,50.60
2022-07-29T09:19:25.981Z,50.21
2022-07-29T09:20:25.912Z,49.34
2022-07-29T09:21:25.841Z,50.21
2022-07-29T09:22:25.774Z,50.80
2022-07-29T09:23:25.701Z,51.02
2022-07-29T09:24:25.639Z,50.82
2022-07-29T09:25:25.568Z,50.75
2022-07-29T09:26:25.499Z,49.88
2022-07-29T09:27:25.431Z,48.90
2022-07-29T09:28:25.363Z,48.22
2022-07-29T09:29:25.294Z,49.22
2022-07-29T09:30:25.229Z,49.19
2022-07-29T09:31:25.258Z,49.68
2022-07-29T09:32:25.089Z,49.68
2022-07-29T09:33:25.046Z,48.02
2022-07-29T09:34:24.965Z,48.90
2022-07-29T09:35:24.893Z,49.10
2022-07-29T09:36:24.835Z,48.90
2022-07-29T09:37:24.752Z,48.97
2022-07-29T09:38:24.684Z,47.22
2022-07-29T09:39:24.620Z,47.49
2022-07-29T09:40:24.559Z,47.20
2022-07-29T09:41:24.478Z,47.39
2022-07-29T09:42:24.412Z,47.76
2022-07-29T09:43:24.342Z,47.37
2022-07-29T09:44:24.274Z,48.83
2022-07-29T09:45:24.211Z,48.85
2022-07-29T09:46:24.159Z,48.25
2022-07-29T09:47:24.071Z,48.17
2022-07-29T09:48:24.002Z,48.85
2022-07-29T09:49:23.965Z,48.36
2022-07-29T09:50:23.868Z,47.88
2022-07-29T09:51:38.316Z,48.00
2022-07-29T09:52:23.739Z,47.32
2022-07-29T09:53:23.667Z,47.42
2022-07-29T09:54:23.597Z,46.34
2022-07-29T09:55:23.527Z,46.73
2022-07-29T09:56:23.466Z,47.52
2022-07-29T09:57:26.171Z,47.80
2022-07-29T09:58:23.324Z,47.32
2022-07-29T09:59:23.269Z,46.56
2022-07-29T10:00:23.189Z,46.83
2022-07-29T10:01:23.165Z,46.25
2022-07-29T10:02:23.629Z,46.64
2022-07-29T10:03:23.022Z,46.25
2022-07-29T10:04:22.925Z,46.71
2022-07-29T10:05:22.858Z,46.64
2022-07-29T10:06:22.789Z,46.32
2022-07-29T10:07:22.718Z,45.74
2022-07-29T10:08:22.653Z,45.35
2022-07-29T10:09:22.589Z,44.96
2022-07-29T10:10:22.519Z,45.28
2022-07-29T10:11:22.450Z,46.25
2022-07-29T10:12:22.383Z,46.05
2022-07-29T10:13:22.313Z,45.28
2022-07-29T10:14:22.249Z,45.47
2022-07-29T10:15:22.182Z,45.37
2022-07-29T10:16:22.172Z,45.49
2022-07-29T10:17:22.048Z,47.53
2022-07-29T10:18:22.133Z,45.98
2022-07-29T10:19:21.912Z,44.90
2022-07-29T10:20:21.861Z,44.13
2022-07-29T10:21:22.664Z,45.20
2022-07-29T10:22:50.390Z,44.32
2022-07-29T10:23:21.643Z,43.93
2022-07-29T10:24:21.579Z,44.42
2022-07-29T10:25:21.510Z,44.30
2022-07-29T10:26:21.443Z,45.18
2022-07-29T10:27:21.374Z,45.08
2022-07-29T10:28:21.308Z,45.00
2022-07-29T10:29:21.477Z,45.39
2022-07-29T10:30:21.170Z,45.59
2022-07-29T10:31:21.186Z,46.10
2022-07-29T10:32:21.037Z,45.51
2022-07-29T10:33:20.974Z,46.70
2022-07-29T10:34:20.909Z,45.56
2022-07-29T10:35:20.836Z,45.36
2022-07-29T10:36:20.772Z,44.31
2022-07-29T10:37:20.701Z,43.63
2022-07-29T10:38:20.639Z,42.19
2022-07-29T10:39:22.417Z,43.85
2022-07-29T10:40:20.503Z,44.24
2022-07-29T10:41:20.434Z,44.65
2022-07-29T10:42:20.396Z,42.50
2022-07-29T10:43:20.307Z,42.11
2022-07-29T10:44:23.037Z,42.13
2022-07-29T10:45:20.170Z,42.52
2022-07-29T10:46:20.152Z,41.93
2022-07-29T10:47:20.038Z,41.76
2022-07-29T10:48:19.975Z,43.03
2022-07-29T10:49:19.931Z,42.05
2022-07-29T10:50:19.839Z,41.76
2022-07-29T10:51:19.775Z,39.31
2022-07-29T10:52:19.710Z,40.29
2022-07-29T10:53:19.648Z,40.78
2022-07-29T10:54:19.579Z,42.07
2022-07-29T10:55:19.510Z,41.29
2022-07-29T10:56:19.445Z,38.82
2022-07-29T10:57:19.379Z,37.93
2022-07-29T10:58:19.313Z,39.00
2022-07-29T10:59:19.248Z,39.57
2022-07-29T11:00:19.180Z,40.04
2022-07-29T11:01:37.054Z,40.80
2022-07-29T11:02:40.884Z,41.19
2022-07-29T11:03:19.001Z,42.34
2022-07-29T11:04:18.920Z,42.05
2022-07-29T11:05:18.854Z,41.36
2022-07-29T11:06:28.019Z,42.14
2022-07-29T11:07:18.725Z,43.80
2022-07-29T11:08:20.279Z,43.24
2022-07-29T11:10:18.528Z,43.46
2022-07-29T11:11:18.462Z,43.55
2022-07-29T11:12:18.395Z,43.46
2022-07-29T11:13:18.328Z,41.89
2022-07-29T11:14:18.268Z,41.02
2022-07-29T11:15:18.214Z,42.09
2022-07-29T11:16:18.132Z,40.53
2022-07-29T11:17:18.065Z,41.02
2022-07-29T11:18:18.003Z,41.02
2022-07-29T11:19:21.520Z,42.30
2022-07-29T11:20:17.880Z,42.99
2022-07-29T11:21:17.805Z,42.79
2022-07-29T11:22:17.743Z,42.13
2022-07-29T11:23:17.673Z,41.15
2022-07-29T11:24:28.601Z,40.95
2022-07-29T11:25:17.546Z,40.08
2022-07-29T11:26:18.552Z,40.06
2022-07-29T11:27:18.174Z,40.92
2022-07-29T11:28:22.821Z,41.80
2022-07-29T11:29:17.283Z,41.50
2022-07-29T11:30:17.220Z,40.63
2022-07-29T11:31:17.161Z,41.60
2022-07-29T11:32:18.306Z,41.89
2022-07-29T11:33:17.025Z,40.92
2022-07-29T11:34:16.962Z,40.92
2022-07-29T11:35:18.424Z,41.91
2022-07-29T11:36:17.136Z,42.69
2022-07-29T11:37:17.708Z,43.20
2022-07-29T11:38:16.696Z,42.42
2022-07-29T11:39:16.631Z,40.27
2022-07-29T11:40:16.570Z,40.86
2022-07-29T11:41:16.499Z,40.48
2022-07-29T11:42:16.522Z,40.97
2022-07-29T11:43:16.370Z,40.29
2022-07-29T11:44:16.309Z,39.39
2022-07-29T11:45:44.122Z,39.76
2022-07-29T11:46:16.180Z,40.45
2022-07-29T11:47:16.110Z,40.94
2022-07-29T11:48:28.590Z,40.55
2022-07-29T11:49:16.023Z,40.64
2022-07-29T11:50:15.921Z,40.94
2022-07-29T11:51:15.851Z,40.45
2022-07-29T11:52:15.800Z,40.16
2022-07-29T11:54:15.775Z,41.25
2022-07-29T11:55:15.589Z,40.95
2022-07-29T11:56:17.079Z,41.07
2022-07-29T11:57:15.460Z,40.00
2022-07-29T11:58:15.403Z,38.94
2022-07-29T11:59:15.514Z,39.53
2022-07-29T12:00:18.544Z,37.87
2022-07-29T12:01:15.224Z,39.54
2022-07-29T12:02:37.460Z,38.96
2022-07-29T12:03:15.115Z,38.35
2022-07-29T12:04:15.014Z,36.69
2022-07-29T12:05:24.041Z,37.18
2022-07-29T12:06:15.444Z,35.91
2022-07-29T12:07:03.416Z,41.03
2022-07-29T12:07:15.685Z,36.79
2022-07-29T12:08:15.025Z,38.14
2022-07-29T12:09:14.859Z,37.95
2022-07-29T12:10:19.596Z,38.14
2022-07-29T12:11:14.563Z,38.43
2022-07-29T12:12:14.496Z,38.22
2022-07-29T12:13:14.451Z,38.59
2022-07-29T12:14:14.369Z,39.47
2022-07-29T12:15:14.303Z,39.47
2022-07-29T12:16:14.573Z,39.08
2022-07-29T12:17:14.176Z,39.00
2022-07-29T12:18:14.133Z,39.78
2022-07-29T12:19:14.041Z,40.08
2022-07-29T12:20:13.983Z,40.39
2022-07-29T12:21:13.918Z,40.31
2022-07-29T12:22:13.852Z,40.21
2022-07-29T12:23:13.788Z,39.53
2022-07-29T12:24:13.725Z,39.33
2022-07-29T12:25:35.253Z,38.55
2022-07-29T12:26:25.568Z,39.70
2022-07-29T12:27:13.531Z,40.09
2022-07-29T12:28:14.271Z,39.90
2022-07-29T12:29:15.423Z,39.41
2022-07-29T12:30:13.335Z,38.42
2022-07-29T12:31:13.316Z,38.71
2022-07-29T12:32:14.580Z,39.49
2022-07-29T12:33:13.142Z,40.17
2022-07-29T12:34:13.086Z,40.17
2022-07-29T12:35:13.018Z,39.98
2022-07-29T12:36:17.721Z,40.25
2022-07-29T12:37:12.881Z,39.96
2022-07-29T12:38:12.817Z,40.16
2022-07-29T12:39:12.749Z,40.84
2022-07-29T12:40:12.692Z,41.72
2022-07-29T12:41:12.623Z,42.01
2022-07-29T12:42:13.953Z,41.82
2022-07-29T12:43:12.492Z,41.72
2022-07-29T12:44:12.431Z,41.11
2022-07-29T12:45:12.365Z,42.09
2022-07-29T12:46:12.331Z,42.77
2022-07-29T12:47:12.227Z,42.19
2022-07-29T12:48:12.171Z,42.19
2022-07-29T12:49:12.255Z,42.09
2022-07-29T12:50:12.035Z,42.16
2022-07-29T12:51:11.968Z,40.80
2022-07-29T12:52:11.907Z,41.48